Time;durP1;ratioP1;P1;durP2;ratioP2;P2;SDS_P1;SDS_P2;PMS_P1;PMS_P2;Temp;Humidity;BMP_temperature;BMP_pressure;BME280_temperature;BME280_humidity;BME280_pressure;Samples;Min_cycle;Max_cycle;Signal;HPM_P1;HPM_P2
2022/09/29 00:01:47;;;;;;;4.88;1.80;;;13.60;99.90;;;;;;5060301;28;20482;-75
2022/09/29 00:04:13;;;;;;;2.58;2.08;;;13.60;99.90;;;;;;5066777;28;20029;-76
2022/09/29 00:06:38;;;;;;;4.43;2.28;;;13.60;99.90;;;;;;5063587;28;20025;-75
2022/09/29 00:09:04;;;;;;;9.70;2.88;;;13.60;99.90;;;;;;5068376;28;20025;-75
2022/09/29 00:11:30;;;;;;;8.32;2.30;;;13.60;99.90;;;;;;5067012;28;20113;-75
2022/09/29 00:13:56;;;;;;;6.85;2.30;;;13.60;99.90;;;;;;5070481;28;20095;-74
2022/09/29 00:16:22;;;;;;;12.98;2.53;;;13.60;99.90;;;;;;5070750;28;20056;-75
2022/09/29 00:18:47;;;;;;;3.17;2.00;;;13.60;99.90;;;;;;5071711;28;20020;-75
2022/09/29 00:21:18;;;;;;;4.72;1.85;;;13.50;99.90;;;;;;5075223;28;20032;-76
2022/09/29 00:23:45;;;;;;;10.80;2.47;;;13.50;99.90;;;;;;5074940;28;20044;-75
2022/09/29 00:26:14;;;;;;;8.32;2.45;;;13.50;99.90;;;;;;5076809;28;20036;-76
2022/09/29 00:28:45;;;;;;;10.13;2.00;;;13.50;99.90;;;;;;5059638;28;20075;-76
2022/09/29 00:31:11;;;;;;;4.63;2.33;;;13.50;99.90;;;;;;5065937;28;20031;-76
2022/09/29 00:33:38;;;;;;;8.00;2.10;;;13.40;99.90;;;;;;5068630;28;20052;-75
2022/09/29 00:36:11;;;;;;;4.30;2.05;;;13.40;99.90;;;;;;5064284;28;20021;-76
2022/09/29 00:38:37;;;;;;;4.05;2.20;;;13.40;99.90;;;;;;5062847;28;20142;-75
2022/09/29 00:41:05;;;;;;;5.53;1.92;;;13.40;99.90;;;;;;5068568;28;20103;-75
2022/09/29 00:43:55;;;;;;;4.95;3.08;;;13.30;99.90;;;;;;5073487;28;20034;-75
2022/09/29 00:46:46;;;;;;;5.80;2.03;;;13.30;99.90;;;;;;5070503;28;20028;-75
2022/09/29 00:49:33;;;;;;;2.85;2.20;;;13.30;99.90;;;;;;5064268;28;20032;-75
2022/09/29 00:52:14;;;;;;;5.63;2.25;;;13.30;99.90;;;;;;5076622;28;20048;-75
2022/09/29 00:54:50;;;;;;;5.90;1.85;;;13.30;99.90;;;;;;5059101;28;20485;-75
2022/09/29 00:57:20;;;;;;;5.13;1.83;;;13.30;99.90;;;;;;5058517;28;20037;-75
2022/09/29 01:00:08;;;;;;;7.82;2.08;;;13.40;99.90;;;;;;5059708;28;20013;-75
2022/09/29 01:02:40;;;;;;;6.53;2.13;;;13.40;99.90;;;;;;5060185;28;20086;-74
2022/09/29 01:05:10;;;;;;;6.30;2.38;;;13.40;99.90;;;;;;5069100;28;20017;-75
2022/09/29 01:07:36;;;;;;;5.13;2.53;;;13.50;99.90;;;;;;5067924;28;20082;-75
2022/09/29 01:10:02;;;;;;;11.60;2.50;;;13.50;99.90;;;;;;5064463;28;20021;-74
2022/09/29 01:12:28;;;;;;;4.60;1.98;;;13.50;99.90;;;;;;5069263;28;20024;-75
2022/09/29 01:14:55;;;;;;;6.15;1.92;;;13.50;99.90;;;;;;5067192;28;20021;-74
2022/09/29 01:17:22;;;;;;;6.85;2.00;;;13.50;99.90;;;;;;5073057;28;20028;-75
2022/09/29 01:20:11;;;;;;;5.00;1.88;;;13.50;99.90;;;;;;5075036;28;20115;-75
2022/09/29 01:22:56;;;;;;;4.03;2.35;;;13.50;99.90;;;;;;5085791;28;20392;-74
2022/09/29 01:26:06;;;;;;;7.40;2.60;;;13.50;99.90;;;;;;5064517;28;20458;-74
2022/09/29 01:28:51;;;;;;;7.97;2.47;;;13.50;99.90;;;;;;5063801;28;20043;-74
2022/09/29 01:31:29;;;;;;;7.75;2.17;;;13.50;99.90;;;;;;5071040;28;20549;-74
2022/09/29 01:34:26;;;;;;;5.28;2.50;;;13.50;99.90;;;;;;5072767;28;20066;-75
2022/09/29 01:37:04;;;;;;;6.22;2.20;;;13.40;99.90;;;;;;5070466;28;20044;-75
2022/09/29 01:39:35;;;;;;;7.45;2.45;;;13.50;99.90;;;;;;5073811;28;20504;-74
2022/09/29 01:42:22;;;;;;;5.53;2.20;;;13.50;99.90;;;;;;5076692;28;20035;-74
2022/09/29 01:45:23;;;;;;;7.97;2.63;;;13.40;99.90;;;;;;5078962;28;20484;-74
2022/09/29 01:48:00;;;;;;;4.05;1.65;;;13.40;99.90;;;;;;5068334;28;20039;-74
2022/09/29 01:50:32;;;;;;;3.60;1.65;;;13.40;99.90;;;;;;5061528;28;20473;-74
2022/09/29 01:53:05;;;;;;;3.47;1.90;;;13.40;99.90;;;;;;5061562;28;20013;-74
2022/09/29 01:55:37;;;;;;;3.00;1.77;;;13.40;99.90;;;;;;5065384;28;20401;-74
2022/09/29 01:58:12;;;;;;;3.70;1.83;;;13.40;99.90;;;;;;5066257;28;20027;-74
2022/09/29 02:00:48;;;;;;;10.18;2.63;;;13.50;99.90;;;;;;5069709;28;20025;-73
2022/09/29 02:03:19;;;;;;;4.70;1.90;;;13.40;99.90;;;;;;5067808;28;20108;-74
2022/09/29 02:05:55;;;;;;;7.40;1.98;;;13.50;99.90;;;;;;5072026;28;20039;-74
2022/09/29 02:08:31;;;;;;;5.60;2.05;;;13.50;99.90;;;;;;5068864;28;20051;-74
2022/09/29 02:11:11;;;;;;;3.63;2.00;;;13.40;99.90;;;;;;5067068;28;20104;-76
2022/09/29 02:13:48;;;;;;;5.05;2.05;;;13.40;99.90;;;;;;5074348;28;20017;-75
2022/09/29 02:16:22;;;;;;;2.03;1.65;;;13.40;99.90;;;;;;5077621;28;20525;-75
2022/09/29 02:18:53;;;;;;;4.13;1.70;;;13.50;99.90;;;;;;5075520;28;20362;-75
2022/09/29 02:21:20;;;;;;;3.53;2.28;;;13.50;99.90;;;;;;5077819;28;20031;-74
2022/09/29 02:23:46;;;;;;;10.85;3.13;;;13.50;99.90;;;;;;5077872;28;20468;-74
2022/09/29 02:26:13;;;;;;;5.53;2.20;;;13.50;99.90;;;;;;5065563;28;20055;-74
2022/09/29 02:28:40;;;;;;;1.98;1.60;;;13.50;99.90;;;;;;5059942;28;20029;-76
2022/09/29 02:31:07;;;;;;;4.68;1.83;;;13.50;99.90;;;;;;5069674;28;20028;-73
2022/09/29 02:33:33;;;;;;;5.57;1.67;;;13.50;99.90;;;;;;5072644;28;20091;-75
2022/09/29 02:36:19;;;;;;;2.25;1.65;;;13.50;99.90;;;;;;5068532;28;20056;-74
2022/09/29 02:39:09;;;;;;;4.55;1.58;;;13.50;99.90;;;;;;5067692;28;20071;-73
2022/09/29 02:41:54;;;;;;;5.00;1.80;;;13.50;99.90;;;;;;5074057;28;20037;-74
2022/09/29 02:44:28;;;;;;;6.50;2.17;;;13.50;99.90;;;;;;5072313;28;20025;-74
2022/09/29 02:47:17;;;;;;;3.70;1.70;;;13.50;99.90;;;;;;5077522;28;20025;-74
2022/09/29 02:50:19;;;;;;;6.15;2.00;;;13.40;99.90;;;;;;5062642;28;20055;-75
2022/09/29 02:52:51;;;;;;;9.73;1.92;;;13.50;99.90;;;;;;5060587;28;20456;-73
2022/09/29 02:55:42;;;;;;;2.90;1.58;;;13.40;99.90;;;;;;5060865;28;20541;-73
2022/09/29 02:58:33;;;;;;;4.97;1.83;;;13.50;99.90;;;;;;5076283;28;20025;-75
2022/09/29 03:00:59;;;;;;;7.90;2.92;;;13.50;99.90;;;;;;5068328;28;20024;-74
2022/09/29 03:03:25;;;;;;;4.70;1.73;;;13.50;99.90;;;;;;5063785;28;20022;-75
2022/09/29 03:05:51;;;;;;;6.93;2.03;;;13.50;99.90;;;;;;5067719;28;20029;-74
2022/09/29 03:08:17;;;;;;;6.18;1.90;;;13.40;99.90;;;;;;5066788;28;20029;-75
2022/09/29 03:10:43;;;;;;;6.40;1.77;;;13.50;99.90;;;;;;5071315;28;20035;-75
2022/09/29 03:13:09;;;;;;;4.05;1.70;;;13.40;99.90;;;;;;5069125;28;20025;-74
2022/09/29 03:15:35;;;;;;;2.22;1.67;;;13.40;99.90;;;;;;5073909;28;20458;-74
2022/09/29 03:18:02;;;;;;;1.73;1.58;;;13.40;99.90;;;;;;5074609;28;20082;-75
2022/09/29 03:20:28;;;;;;;3.47;1.70;;;13.40;99.90;;;;;;5073834;28;20036;-75
2022/09/29 03:22:57;;;;;;;4.95;2.03;;;13.50;99.90;;;;;;5077208;28;20046;-76
2022/09/29 03:25:23;;;;;;;5.75;1.85;;;13.50;99.90;;;;;;5072168;28;20102;-73
2022/09/29 03:27:50;;;;;;;5.63;2.05;;;13.50;99.90;;;;;;5057226;28;20013;-75
2022/09/29 03:30:17;;;;;;;3.28;1.73;;;13.40;99.90;;;;;;5061331;28;20420;-75
2022/09/29 03:32:43;;;;;;;6.53;1.95;;;13.40;99.90;;;;;;5072149;28;20055;-74
2022/09/29 03:35:10;;;;;;;2.80;1.63;;;13.40;99.90;;;;;;5071708;28;20028;-75
2022/09/29 03:37:36;;;;;;;6.88;2.40;;;13.40;99.90;;;;;;5068672;28;20098;-74
2022/09/29 03:40:03;;;;;;;2.95;1.60;;;13.40;99.90;;;;;;5073647;28;20685;-74
2022/09/29 03:42:29;;;;;;;2.47;1.80;;;13.40;99.90;;;;;;5071401;28;20021;-74
2022/09/29 03:44:55;;;;;;;3.65;1.50;;;13.40;99.90;;;;;;5074683;28;20509;-74
2022/09/29 03:47:21;;;;;;;2.75;2.08;;;13.40;99.90;;;;;;5074844;28;20107;-74
2022/09/29 03:49:47;;;;;;;2.17;1.73;;;13.30;99.90;;;;;;5071182;28;20025;-75
2022/09/29 03:52:12;;;;;;;4.50;1.40;;;13.30;99.90;;;;;;5058665;28;20019;-76
2022/09/29 03:54:38;;;;;;;3.53;1.60;;;13.30;99.90;;;;;;5059815;28;20021;-76
2022/09/29 03:57:04;;;;;;;1.95;1.40;;;13.30;99.90;;;;;;5059109;28;20028;-75
2022/09/29 03:59:30;;;;;;;4.35;1.40;;;13.20;99.90;;;;;;5065058;28;20056;-76
2022/09/29 04:01:56;;;;;;;2.88;1.52;;;13.30;99.90;;;;;;5060924;28;20025;-75
2022/09/29 04:04:22;;;;;;;3.55;1.67;;;13.20;99.90;;;;;;5063647;28;20035;-76
2022/09/29 04:06:47;;;;;;;3.60;1.40;;;13.20;99.90;;;;;;5064417;28;20029;-75
2022/09/29 04:09:13;;;;;;;3.33;1.67;;;13.20;99.90;;;;;;5071455;28;20029;-75
2022/09/29 04:11:39;;;;;;;3.83;1.50;;;13.20;99.90;;;;;;5066475;28;20024;-75
2022/09/29 04:14:05;;;;;;;5.95;1.70;;;13.20;99.90;;;;;;5079038;28;20017;-75
2022/09/29 04:16:31;;;;;;;10.10;2.00;;;13.20;99.90;;;;;;5071640;28;20033;-75
2022/09/29 04:18:57;;;;;;;3.92;1.50;;;13.20;99.90;;;;;;5075659;28;20516;-76
2022/09/29 04:21:23;;;;;;;3.45;1.70;;;13.20;99.90;;;;;;5075239;28;20416;-74
2022/09/29 04:23:49;;;;;;;3.75;1.60;;;13.20;99.90;;;;;;5076727;28;20467;-75
2022/09/29 04:26:15;;;;;;;1.63;1.38;;;13.20;99.90;;;;;;5064371;28;20036;-75
2022/09/29 04:28:41;;;;;;;6.88;1.75;;;13.20;99.90;;;;;;5059546;28;20020;-75
2022/09/29 04:31:07;;;;;;;3.03;1.58;;;13.10;99.90;;;;;;5066277;28;20025;-75
2022/09/29 04:33:34;;;;;;;6.60;2.10;;;13.10;99.90;;;;;;5070837;28;20020;-75
2022/09/29 04:36:00;;;;;;;5.38;1.60;;;13.20;99.90;;;;;;5065180;28;20088;-75
2022/09/29 04:38:26;;;;;;;2.50;1.40;;;13.10;99.90;;;;;;5063262;28;20044;-75
2022/09/29 04:40:51;;;;;;;3.25;1.55;;;13.10;99.90;;;;;;5070541;28;20028;-76
2022/09/29 04:43:17;;;;;;;2.92;1.50;;;13.10;99.90;;;;;;5074568;28;20032;-75
2022/09/29 04:45:43;;;;;;;3.30;1.73;;;13.10;99.90;;;;;;5073208;28;20071;-75
2022/09/29 04:48:09;;;;;;;5.28;2.20;;;13.10;99.90;;;;;;5076747;28;20035;-75
2022/09/29 04:50:35;;;;;;;2.75;1.48;;;13.10;99.90;;;;;;5064062;28;20025;-75
2022/09/29 04:53:00;;;;;;;1.70;1.30;;;13.10;99.90;;;;;;5059663;28;20028;-75
2022/09/29 04:55:26;;;;;;;2.67;1.73;;;13.00;99.90;;;;;;5063242;28;20020;-74
2022/09/29 04:57:52;;;;;;;1.52;1.42;;;13.00;99.90;;;;;;5066920;28;20029;-75
2022/09/29 05:00:18;;;;;;;2.83;1.60;;;13.00;99.90;;;;;;5064825;28;20142;-74
2022/09/29 05:02:44;;;;;;;2.83;1.70;;;13.00;99.90;;;;;;5070392;28;20060;-76
2022/09/29 05:05:11;;;;;;;2.72;1.95;;;13.00;99.90;;;;;;5066760;28;20032;-74
2022/09/29 05:07:41;;;;;;;2.35;1.50;;;13.00;99.90;;;;;;5072077;28;20519;-75
2022/09/29 05:10:08;;;;;;;2.05;1.83;;;13.00;99.90;;;;;;5067373;28;20559;-75
2022/09/29 05:12:34;;;;;;;4.05;1.75;;;13.00;99.90;;;;;;5074123;28;20492;-75
2022/09/29 05:15:00;;;;;;;1.60;1.50;;;13.00;99.90;;;;;;5072306;28;20377;-75
2022/09/29 05:17:26;;;;;;;2.92;1.70;;;13.00;99.90;;;;;;5077752;28;20021;-75
2022/09/29 05:19:52;;;;;;;3.83;1.48;;;13.00;99.90;;;;;;5075575;28;20060;-74
2022/09/29 05:22:23;;;;;;;2.63;1.70;;;13.10;99.90;;;;;;5079480;28;20479;-74
2022/09/29 05:24:50;;;;;;;1.83;1.48;;;13.00;99.90;;;;;;5077900;28;20017;-75
2022/09/29 05:27:15;;;;;;;3.10;1.33;;;13.00;99.90;;;;;;5059983;28;20125;-76
2022/09/29 05:29:41;;;;;;;2.03;1.40;;;13.00;99.90;;;;;;5066977;28;20084;-76
2022/09/29 05:32:07;;;;;;;2.22;1.50;;;13.00;99.90;;;;;;5080766;28;20032;-75
2022/09/29 05:34:33;;;;;;;1.92;1.45;;;13.10;99.90;;;;;;5072584;28;20115;-75
2022/09/29 05:36:58;;;;;;;2.22;1.50;;;13.10;99.90;;;;;;5064190;28;20179;-75
2022/09/29 05:39:24;;;;;;;2.75;1.30;;;13.10;99.90;;;;;;5069412;28;20029;-76
2022/09/29 05:41:50;;;;;;;2.47;1.60;;;13.10;99.90;;;;;;5064679;28;20033;-75
2022/09/29 05:44:16;;;;;;;2.40;1.60;;;13.10;99.90;;;;;;5062182;28;20017;-76
2022/09/29 05:46:42;;;;;;;3.00;1.88;;;13.10;99.90;;;;;;5059697;28;20029;-76
2022/09/29 05:49:09;;;;;;;1.67;1.58;;;13.10;99.90;;;;;;5064195;28;20112;-75
2022/09/29 05:51:35;;;;;;;3.10;1.58;;;13.10;99.90;;;;;;5074250;28;20025;-76
2022/09/29 05:54:01;;;;;;;3.85;1.60;;;13.10;99.90;;;;;;5066144;28;20058;-75
2022/09/29 05:56:28;;;;;;;3.85;1.42;;;13.10;99.90;;;;;;5061493;28;20032;-74
2022/09/29 05:58:54;;;;;;;3.10;1.50;;;13.10;99.90;;;;;;5060557;28;20025;-75
2022/09/29 06:01:23;;;;;;;4.10;1.65;;;13.10;99.90;;;;;;5064464;28;20033;-75
2022/09/29 06:03:51;;;;;;;2.90;1.73;;;13.10;99.90;;;;;;5062384;28;20040;-76
2022/09/29 06:06:20;;;;;;;2.22;1.48;;;13.10;99.90;;;;;;5058752;28;20106;-77
2022/09/29 06:08:46;;;;;;;3.75;1.92;;;13.10;99.90;;;;;;5059864;28;20017;-76
2022/09/29 06:11:15;;;;;;;3.63;1.70;;;13.10;99.90;;;;;;5063180;28;20079;-76
2022/09/29 06:13:43;;;;;;;1.95;1.50;;;13.10;99.90;;;;;;5066279;28;20013;-76
2022/09/29 06:16:10;;;;;;;4.25;1.70;;;13.10;99.90;;;;;;5062807;28;20092;-77
2022/09/29 06:18:36;;;;;;;4.22;1.60;;;13.10;99.90;;;;;;5059116;28;20055;-76
2022/09/29 06:21:13;;;;;;;1.50;1.40;;;13.10;99.90;;;;;;5060274;28;20025;-76
2022/09/29 06:23:40;;;;;;;1.50;1.40;;;13.10;99.90;;;;;;5061239;28;20067;-75
2022/09/29 06:26:08;;;;;;;2.67;1.50;;;13.00;99.90;;;;;;5062569;28;20025;-77
2022/09/29 06:28:34;;;;;;;2.22;1.63;;;13.00;99.90;;;;;;5059901;28;20377;-75
2022/09/29 06:31:03;;;;;;;2.78;1.40;;;13.00;99.90;;;;;;5075547;28;20060;-75
2022/09/29 06:33:30;;;;;;;1.95;1.40;;;13.00;99.90;;;;;;5065984;28;20025;-75
2022/09/29 06:38:42;;;;;;;5.60;2.50;;;13.00;99.90;;;;;;5072669;28;20063;-77
2022/09/29 06:41:08;;;;;;;3.13;1.90;;;13.00;99.90;;;;;;5066641;28;20037;-75
2022/09/29 06:43:34;;;;;;;2.08;1.63;;;12.90;99.90;;;;;;5070964;28;20028;-77
2022/09/29 06:46:01;;;;;;;2.13;1.70;;;12.90;99.90;;;;;;5064856;28;20033;-76
2022/09/29 06:48:28;;;;;;;2.28;1.67;;;12.90;99.90;;;;;;5069978;28;20060;-75
2022/09/29 06:50:55;;;;;;;3.45;1.60;;;12.90;99.90;;;;;;5074579;28;20052;-74
2022/09/29 06:53:22;;;;;;;5.00;1.40;;;12.90;99.90;;;;;;5064218;28;20116;-74
2022/09/29 06:55:59;;;;;;;4.80;1.60;;;12.90;99.90;;;;;;5066526;28;20477;-73
2022/09/29 06:58:26;;;;;;;1.75;1.63;;;12.90;99.90;;;;;;5066235;28;20044;-72
2022/09/29 07:00:52;;;;;;;2.10;1.55;;;12.90;99.90;;;;;;5068583;28;20025;-73
2022/09/29 07:03:18;;;;;;;4.22;1.63;;;12.90;99.90;;;;;;5069988;28;20056;-73
2022/09/29 07:05:43;;;;;;;2.35;2.15;;;13.00;99.90;;;;;;5070583;28;20024;-73
2022/09/29 07:08:10;;;;;;;2.30;2.10;;;13.10;99.90;;;;;;5077902;28;20384;-74
2022/09/29 07:10:36;;;;;;;3.55;2.80;;;13.10;99.90;;;;;;5073165;28;20028;-73
2022/09/29 07:13:01;;;;;;;2.47;2.10;;;13.10;99.90;;;;;;5077194;28;20833;-73
2022/09/29 07:15:30;;;;;;;2.20;1.90;;;13.20;99.90;;;;;;5059514;28;20048;-73
2022/09/29 07:17:58;;;;;;;2.90;1.70;;;13.20;99.90;;;;;;5071457;28;20745;-74
2022/09/29 07:20:28;;;;;;;2.60;1.50;;;13.20;99.90;;;;;;5072253;28;20027;-73
2022/09/29 07:22:54;;;;;;;3.13;1.70;;;13.20;99.90;;;;;;5069689;28;20100;-74
2022/09/29 07:25:20;;;;;;;4.15;1.80;;;13.20;99.90;;;;;;5065444;28;20051;-73
2022/09/29 07:27:47;;;;;;;4.35;2.00;;;13.20;99.90;;;;;;5075698;28;20491;-74
2022/09/29 07:30:14;;;;;;;3.67;1.55;;;13.20;99.90;;;;;;5064984;28;20016;-74
2022/09/29 07:32:39;;;;;;;2.38;1.90;;;13.20;99.90;;;;;;5063877;28;20024;-74
2022/09/29 07:35:06;;;;;;;1.88;1.40;;;13.20;99.90;;;;;;5072081;28;20027;-74
2022/09/29 07:37:32;;;;;;;3.33;1.55;;;13.20;99.90;;;;;;5070730;28;20044;-74
2022/09/29 07:39:58;;;;;;;2.83;1.88;;;13.20;99.90;;;;;;5067625;28;20497;-73
2022/09/29 07:42:24;;;;;;;3.70;1.80;;;13.30;99.90;;;;;;5061372;28;20563;-73
2022/09/29 07:44:50;;;;;;;2.03;1.80;;;13.30;99.90;;;;;;5060919;28;20764;-73
2022/09/29 07:47:16;;;;;;;3.53;1.75;;;13.30;99.90;;;;;;5074342;28;20060;-74
2022/09/29 07:49:41;;;;;;;1.80;1.70;;;13.30;99.90;;;;;;5064584;28;20021;-74
2022/09/29 07:52:07;;;;;;;1.98;1.70;;;13.30;99.90;;;;;;5061335;28;20039;-74
2022/09/29 07:54:34;;;;;;;2.45;2.25;;;13.30;99.90;;;;;;5059092;28;20539;-74
2022/09/29 07:57:02;;;;;;;3.92;1.63;;;13.30;99.90;;;;;;5057910;28;20086;-73
2022/09/29 07:59:29;;;;;;;4.18;1.60;;;13.40;99.90;;;;;;5059864;28;20055;-72
2022/09/29 08:01:55;;;;;;;3.60;1.67;;;13.40;99.90;;;;;;5066818;28;20033;-78
2022/09/29 08:04:21;;;;;;;3.88;1.60;;;13.40;99.90;;;;;;5065166;28;20025;-73
2022/09/29 08:06:47;;;;;;;2.42;1.40;;;13.50;99.90;;;;;;5065863;28;20029;-74
2022/09/29 08:09:14;;;;;;;2.38;1.63;;;13.40;99.90;;;;;;5075418;28;20016;-74
2022/09/29 08:11:41;;;;;;;3.53;1.67;;;13.50;99.90;;;;;;5074284;28;20016;-75
2022/09/29 08:14:09;;;;;;;2.72;1.55;;;13.40;99.90;;;;;;5065976;28;20493;-74
2022/09/29 08:16:35;;;;;;;1.75;1.40;;;13.50;99.90;;;;;;5065643;28;20090;-76
2022/09/29 08:19:02;;;;;;;3.75;1.70;;;13.50;99.90;;;;;;5065524;28;20039;-78
2022/09/29 08:21:28;;;;;;;3.63;1.48;;;13.50;99.90;;;;;;5075085;28;20032;-74
2022/09/29 08:23:54;;;;;;;2.28;1.50;;;13.50;99.90;;;;;;5071980;28;20441;-73
2022/09/29 08:26:21;;;;;;;3.17;1.65;;;13.50;99.90;;;;;;5072384;28;20063;-74
2022/09/29 08:28:47;;;;;;;1.58;1.45;;;13.50;99.90;;;;;;5074079;28;20043;-73
2022/09/29 08:31:19;;;;;;;3.60;1.63;;;13.40;99.90;;;;;;5075227;28;20021;-73
2022/09/29 08:33:48;;;;;;;5.45;1.83;;;13.30;99.90;;;;;;5058073;28;20020;-73
2022/09/29 08:36:15;;;;;;;3.75;1.50;;;13.20;99.90;;;;;;5058107;28;20029;-74
2022/09/29 08:38:42;;;;;;;1.80;1.70;;;13.20;99.90;;;;;;5061976;28;20093;-73
2022/09/29 08:41:39;;;;;;;2.92;1.90;;;13.20;99.90;;;;;;5061974;28;20037;-74
2022/09/29 08:44:05;;;;;;;2.60;1.98;;;13.30;99.90;;;;;;5070776;28;20055;-74
2022/09/29 08:46:38;;;;;;;6.03;1.60;;;13.30;99.90;;;;;;5070181;28;20036;-73
2022/09/29 08:49:28;;;;;;;3.08;1.70;;;13.40;99.90;;;;;;5065952;28;20021;-74
2022/09/29 08:52:00;;;;;;;4.32;1.60;;;13.50;99.90;;;;;;5073492;28;20013;-74
2022/09/29 08:54:43;;;;;;;3.58;1.70;;;13.50;99.90;;;;;;5073467;28;20024;-74
2022/09/29 08:57:17;;;;;;;5.00;1.92;;;13.50;99.90;;;;;;5074819;28;20499;-74
2022/09/29 08:59:49;;;;;;;3.03;1.45;;;13.60;99.90;;;;;;5066940;28;20036;-74
2022/09/29 09:02:43;;;;;;;2.42;1.60;;;13.60;99.90;;;;;;5058652;28;20074;-74
2022/09/29 09:05:16;;;;;;;2.75;1.40;;;13.70;99.90;;;;;;5061752;28;20464;-74
2022/09/29 09:08:13;;;;;;;1.73;1.40;;;13.90;99.90;;;;;;5080549;28;20067;-73
2022/09/29 09:10:49;;;;;;;3.95;1.80;;;14.00;99.90;;;;;;5071562;28;20017;-73
2022/09/29 09:13:54;;;;;;;2.67;1.67;;;14.30;99.90;;;;;;5057253;28;20439;-73
2022/09/29 09:16:35;;;;;;;4.22;1.92;;;14.40;99.90;;;;;;5056344;28;20041;-74
2022/09/29 09:19:12;;;;;;;2.30;1.50;;;14.50;99.90;;;;;;5062062;28;20064;-74
2022/09/29 09:21:43;;;;;;;3.38;1.27;;;14.70;99.90;;;;;;5062209;28;20021;-74
2022/09/29 09:24:37;;;;;;;3.03;1.50;;;14.80;99.90;;;;;;5057802;28;20028;-74
2022/09/29 09:27:03;;;;;;;2.30;1.50;;;14.90;99.90;;;;;;5074171;28;20032;-74
2022/09/29 09:29:41;;;;;;;1.80;1.35;;;14.90;99.90;;;;;;5065682;28;20098;-74
2022/09/29 09:32:20;;;;;;;3.25;1.30;;;15.00;99.90;;;;;;5070585;28;20400;-73
2022/09/29 09:34:49;;;;;;;4.50;1.65;;;15.10;99.90;;;;;;5069128;28;20059;-74
2022/09/29 09:37:27;;;;;;;6.15;2.05;;;15.10;99.90;;;;;;5073347;28;20055;-73
2022/09/29 09:40:08;;;;;;;4.45;1.23;;;15.20;99.90;;;;;;5076115;28;20091;-74
2022/09/29 09:42:38;;;;;;;2.70;1.20;;;15.40;99.90;;;;;;5078588;28;20385;-73
2022/09/29 09:45:13;;;;;;;4.70;1.35;;;15.40;99.90;;;;;;5074069;28;20029;-73
2022/09/29 09:47:50;;;;;;;1.30;1.10;;;15.80;99.90;;;;;;5074942;28;20503;-75
2022/09/29 09:50:18;;;;;;;2.40;1.25;;;15.90;99.90;;;;;;5073859;28;20112;-77
2022/09/29 09:53:25;;;;;;;2.00;1.35;;;16.20;99.90;;;;;;5074410;28;20460;-73
2022/09/29 09:56:32;;;;;;;2.53;1.38;;;16.30;99.90;;;;;;5053777;28;20040;-76
2022/09/29 09:59:17;;;;;;;1.30;1.20;;;16.40;99.90;;;;;;5061526;28;20056;-75
2022/09/29 10:01:43;;;;;;;1.40;1.10;;;16.30;99.90;;;;;;5067338;28;20033;-75
2022/09/29 10:04:12;;;;;;;2.75;1.40;;;16.40;99.90;;;;;;5061538;28;20036;-74
2022/09/29 10:06:38;;;;;;;2.22;1.30;;;16.50;99.90;;;;;;5060090;28;20036;-75
2022/09/29 10:09:04;;;;;;;2.58;1.63;;;16.40;99.90;;;;;;5065349;28;20013;-74
2022/09/29 10:11:31;;;;;;;1.85;1.20;;;16.50;99.90;;;;;;5063415;28;20370;-74
2022/09/29 10:14:09;;;;;;;1.50;1.15;;;16.50;99.90;;;;;;5067796;28;20397;-75
2022/09/29 10:16:50;;;;;;;2.22;1.35;;;16.40;99.90;;;;;;5065260;28;20094;-74
2022/09/29 10:19:43;;;;;;;2.88;1.60;;;15.90;99.90;;;;;;5070201;28;20028;-75
2022/09/29 10:22:13;;;;;;;2.90;1.45;;;15.40;99.90;;;;;;5072259;28;20060;-75
2022/09/29 10:24:39;;;;;;;3.30;1.50;;;15.30;99.90;;;;;;5070626;28;20091;-76
2022/09/29 10:27:06;;;;;;;4.40;2.00;;;15.30;99.90;;;;;;5075095;28;20052;-75
2022/09/29 10:29:40;;;;;;;2.85;1.50;;;15.40;99.90;;;;;;5074386;28;20021;-75
2022/09/29 10:32:10;;;;;;;1.42;1.10;;;15.60;99.90;;;;;;5066647;28;20103;-74
2022/09/29 10:34:38;;;;;;;;;;;15.70;99.90;;;;;;5077988;28;20013;-75
2022/09/29 10:37:19;;;;;;;2.65;1.13;;;15.80;99.90;;;;;;5071076;28;19921;-74
2022/09/29 10:39:49;;;;;;;1.60;1.20;;;15.70;99.90;;;;;;5059778;28;20025;-75
2022/09/29 10:42:26;;;;;;;1.40;1.05;;;15.70;99.90;;;;;;5065820;28;20024;-76
2022/09/29 10:45:12;;;;;;;1.85;1.15;;;15.60;99.90;;;;;;5072480;28;20093;-77
2022/09/29 10:47:40;;;;;;;1.25;1.10;;;15.50;99.90;;;;;;5073359;28;20013;-75
2022/09/29 10:50:11;;;;;;;1.35;1.25;;;15.50;99.90;;;;;;5074014;28;20021;-76
2022/09/29 10:52:40;;;;;;;4.18;1.70;;;15.40;99.90;;;;;;5070928;28;20036;-76
2022/09/29 10:55:22;;;;;;;1.83;1.38;;;15.30;99.90;;;;;;5076250;28;20078;-75
2022/09/29 10:57:50;;;;;;;4.28;1.20;;;15.30;99.90;;;;;;5075535;28;20024;-75
2022/09/29 11:00:30;;;;;;;2.63;1.40;;;15.40;99.90;;;;;;5077909;28;20503;-76
2022/09/29 11:03:05;;;;;;;3.15;1.50;;;15.50;99.90;;;;;;5058771;28;20384;-76
2022/09/29 11:05:31;;;;;;;1.50;1.33;;;15.60;99.90;;;;;;5060942;28;20032;-77
2022/09/29 11:07:57;;;;;;;1.20;1.00;;;15.60;99.90;;;;;;5059383;28;20044;-76
2022/09/29 11:10:32;;;;;;;1.25;1.00;;;15.60;99.90;;;;;;5073850;28;20493;-75
2022/09/29 11:13:13;;;;;;;1.65;1.10;;;15.40;99.90;;;;;;5062648;28;20048;-77
2022/09/29 11:15:40;;;;;;;1.10;1.00;;;15.30;99.90;;;;;;5068320;28;20044;-78
2022/09/29 11:18:29;;;;;;;1.48;1.20;;;15.30;99.90;;;;;;5065087;28;20025;-76
2022/09/29 11:21:21;;;;;;;1.70;1.10;;;15.40;99.90;;;;;;5066280;28;20013;-78
2022/09/29 11:23:46;;;;;;;1.30;1.20;;;15.50;99.90;;;;;;5068141;28;20059;-77
2022/09/29 11:26:39;;;;;;;2.20;1.52;;;15.60;99.90;;;;;;5071089;28;20435;-78
2022/09/29 11:29:14;;;;;;;2.03;1.25;;;15.80;99.90;;;;;;5066980;28;20028;-77
2022/09/29 11:32:19;;;;;;;1.60;1.23;;;16.00;99.90;;;;;;5073681;28;20028;-78
2022/09/29 11:34:57;;;;;;;2.75;1.65;;;16.30;99.90;;;;;;5071964;28;20036;-76
2022/09/29 11:37:30;;;;;;;2.00;1.15;;;16.50;99.90;;;;;;5067238;28;20060;-78
2022/09/29 11:39:56;;;;;;;2.83;1.00;;;16.70;99.90;;;;;;5059881;28;20079;-77
2022/09/29 11:42:46;;;;;;;1.73;1.08;;;16.60;99.90;;;;;;5065031;28;20020;-74
2022/09/29 11:45:17;;;;;;;2.13;1.27;;;16.60;99.90;;;;;;5077002;28;20503;-75
2022/09/29 11:47:47;;;;;;;3.20;2.05;;;16.60;99.90;;;;;;5075740;28;20044;-74
2022/09/29 11:50:36;;;;;;;2.92;1.60;;;16.60;99.90;;;;;;5075454;28;20021;-79
2022/09/29 11:53:29;;;;;;;2.38;1.30;;;16.60;99.90;;;;;;5070738;28;20060;-78
2022/09/29 11:56:16;;;;;;;1.48;1.10;;;16.70;99.90;;;;;;5059333;28;20028;-77
2022/09/29 11:59:06;;;;;;;2.88;1.10;;;16.80;99.90;;;;;;5079819;28;20053;-78
2022/09/29 12:01:52;;;;;;;3.23;0.80;;;17.00;99.90;;;;;;5058876;28;20717;-77
2022/09/29 12:04:33;;;;;;;3.80;1.15;;;17.00;99.90;;;;;;5073250;28;20035;-75
2022/09/29 12:07:28;;;;;;;1.77;1.00;;;17.00;99.90;;;;;;5061847;28;20078;-78
2022/09/29 12:09:59;;;;;;;1.15;1.00;;;17.00;99.90;;;;;;5064463;28;20073;-77
2022/09/29 12:12:42;;;;;;;2.63;1.02;;;16.90;99.90;;;;;;5062003;28;20074;-77
2022/09/29 12:15:41;;;;;;;1.67;1.02;;;16.80;99.90;;;;;;5075016;28;20032;-79
2022/09/29 12:18:21;;;;;;;1.10;1.00;;;17.10;99.90;;;;;;5073247;28;20016;-78
2022/09/29 12:20:51;;;;;;;1.33;1.23;;;17.30;99.90;;;;;;5069617;28;20029;-75
2022/09/29 12:23:21;;;;;;;0.93;0.90;;;17.40;99.90;;;;;;5059756;28;20040;-77
2022/09/29 12:26:04;;;;;;;1.30;1.03;;;17.30;99.90;;;;;;5069359;28;20032;-79
2022/09/29 12:28:55;;;;;;;2.83;1.10;;;17.20;99.90;;;;;;5056557;28;20251;-77
2022/09/29 12:31:24;;;;;;;1.80;0.93;;;17.00;99.90;;;;;;5062050;28;20041;-77
2022/09/29 12:33:56;;;;;;;3.75;1.50;;;17.00;99.90;;;;;;5069197;28;20465;-77
2022/09/29 12:37:01;;;;;;;0.88;0.88;;;17.00;99.90;;;;;;5060344;28;20362;-76
2022/09/29 12:39:33;;;;;;;1.00;0.90;;;17.00;99.90;;;;;;5050764;28;20055;-78
2022/09/29 12:42:15;;;;;;;0.93;0.80;;;17.00;99.90;;;;;;5058491;28;20096;-76
2022/09/29 12:44:52;;;;;;;0.98;0.90;;;17.00;99.90;;;;;;5060971;28;20409;-76
2022/09/29 12:48:05;;;;;;;1.30;0.90;;;16.80;99.90;;;;;;5063827;28;20029;-78
2022/09/29 12:50:41;;;;;;;1.13;1.02;;;16.70;99.90;;;;;;5023978;28;20164;-77
2022/09/29 12:53:33;;;;;;;1.25;0.90;;;16.70;99.90;;;;;;5065342;28;20045;-78
2022/09/29 12:56:21;;;;;;;1.17;1.00;;;16.60;99.90;;;;;;5059801;28;20024;-78
2022/09/29 12:58:52;;;;;;;2.40;1.63;;;16.50;99.90;;;;;;5063554;28;20384;-78
2022/09/29 13:01:36;;;;;;;2.42;1.10;;;16.60;99.90;;;;;;5058139;28;20102;-76
2022/09/29 13:05:01;;;;;;;3.00;1.30;;;16.70;99.90;;;;;;5058662;28;20024;-78
2022/09/29 13:07:37;;;;;;;1.10;1.00;;;16.70;99.90;;;;;;5060919;28;20049;-77
2022/09/29 13:10:25;;;;;;;1.73;1.02;;;16.70;99.90;;;;;;5064750;28;20033;-76
2022/09/29 13:13:00;;;;;;;1.77;1.15;;;16.80;99.90;;;;;;5066626;28;20032;-77
2022/09/29 13:15:43;;;;;;;1.65;0.93;;;16.80;99.90;;;;;;5059305;28;20031;-76
2022/09/29 13:18:42;;;;;;;1.30;1.05;;;17.00;99.90;;;;;;5066192;28;20044;-77
2022/09/29 13:21:35;;;;;;;1.33;1.00;;;17.10;99.90;;;;;;5063811;28;20056;-77